FDB719 VABB-OMDB
Flight info
| Callsign | FDB719 |
|---|---|
| Flight time | 1h 26m |
| Altitude | 34000 |
| Route | RAXET2A SAKUN V2 SUGID N571 VUSET A454 PASOV B540 KUPMA/N0367F240 B540 MIVEK P574 IMPED |
| Aircraft | A20N/M-SDE2E3FGHIRWXY/LB1 |
Departure
| Time | 2026-04-21 09:04 |
|---|---|
| Airport | Chhatrapati Shivaji Maharaj International Airport (VABB) |
Arrival
| Time | 2026-04-21 10:30 |
|---|---|
| Airport | Dubai International Airport (OMDB) |
| Time | Latitude | Longitude | Altitude | Speed | Heading |
|---|---|---|---|---|---|
| 2026-04-21 08:21 | 19.09458 | 72.87087 | 25 ft | 0 kts | 137° |
| 2026-04-21 08:36 | 19.09459 | 72.87087 | 26 ft | 2 kts | 137° |
| 2026-04-21 08:36 | 19.09471 | 72.87075 | 27 ft | 2 kts | 139° |
| 2026-04-21 08:36 | 19.09483 | 72.87064 | 28 ft | 2 kts | 140° |
| 2026-04-21 08:36 | 19.09496 | 72.87053 | 28 ft | 2 kts | 143° |
| 2026-04-21 08:37 | 19.09510 | 72.87043 | 29 ft | 2 kts | 148° |
| 2026-04-21 08:37 | 19.09524 | 72.87034 | 28 ft | 2 kts | 163° |
| 2026-04-21 08:37 | 19.09541 | 72.87033 | 25 ft | 2 kts | 208° |
| 2026-04-21 08:37 | 19.09550 | 72.87040 | 28 ft | 1 kts | 230° |
| 2026-04-21 08:38 | 19.09550 | 72.87041 | 28 ft | 0 kts | 229° |
| 2026-04-21 08:41 | 19.09550 | 72.87040 | 28 ft | 2 kts | 229° |
| 2026-04-21 08:41 | 19.09528 | 72.87013 | 47 ft | 8 kts | 229° |
| 2026-04-21 08:41 | 19.09479 | 72.86955 | 26 ft | 13 kts | 228° |
| 2026-04-21 08:42 | 19.09418 | 72.86885 | 27 ft | 15 kts | 227° |
| 2026-04-21 08:42 | 19.09359 | 72.86887 | 26 ft | 11 kts | 137° |
| 2026-04-21 08:42 | 19.09288 | 72.86961 | 27 ft | 17 kts | 137° |
| 2026-04-21 08:42 | 19.09230 | 72.87039 | 26 ft | 9 kts | 112° |
| 2026-04-21 08:43 | 19.09187 | 72.87079 | 27 ft | 7 kts | 163° |
| 2026-04-21 08:43 | 19.09136 | 72.87119 | 26 ft | 12 kts | 110° |
| 2026-04-21 08:43 | 19.09133 | 72.87230 | 25 ft | 15 kts | 94° |
| 2026-04-21 08:43 | 19.09075 | 72.87272 | 25 ft | 11 kts | 157° |
| 2026-04-21 08:44 | 19.09048 | 72.87357 | 27 ft | 16 kts | 86° |
| 2026-04-21 08:44 | 19.09051 | 72.87443 | 25 ft | 20 kts | 88° |
| 2026-04-21 08:44 | 19.09051 | 72.87610 | 28 ft | 25 kts | 90° |
| 2026-04-21 08:44 | 19.09054 | 72.87813 | 28 ft | 27 kts | 89° |
| 2026-04-21 08:45 | 19.09055 | 72.87866 | 26 ft | 5 kts | 88° |
| 2026-04-21 08:45 | 19.09056 | 72.87902 | 27 ft | 9 kts | 88° |
| 2026-04-21 08:45 | 19.09057 | 72.87995 | 26 ft | 16 kts | 89° |
| 2026-04-21 08:45 | 19.09055 | 72.88037 | 28 ft | 2 kts | 109° |
| 2026-04-21 08:46 | 19.09032 | 72.88050 | 24 ft | 6 kts | 169° |
| 2026-04-21 08:46 | 19.08993 | 72.88050 | 26 ft | 0 kts | 176° |
| 2026-04-21 08:46 | 19.08988 | 72.88051 | 26 ft | 3 kts | 174° |
| 2026-04-21 08:47 | 19.08939 | 72.88053 | 23 ft | 10 kts | 184° |
| 2026-04-21 08:47 | 19.08888 | 72.88004 | 23 ft | 11 kts | 259° |
| 2026-04-21 08:47 | 19.08887 | 72.87992 | 23 ft | 3 kts | 270° |
| 2026-04-21 08:47 | 19.08886 | 72.87978 | 23 ft | 0 kts | 268° |
| 2026-04-21 08:48 | 19.08883 | 72.87645 | 25 ft | 91 kts | 269° |
| 2026-04-21 08:48 | 19.08872 | 72.86845 | 29 ft | 0 kts | 269° |
| 2026-04-21 08:48 | 19.09458 | 72.87087 | 25 ft | 0 kts | 137° |
| 2026-04-21 08:54 | 19.09463 | 72.87082 | 26 ft | 2 kts | 137° |
| 2026-04-21 08:54 | 19.09476 | 72.87071 | 26 ft | 2 kts | 139° |
| 2026-04-21 08:55 | 19.09488 | 72.87059 | 28 ft | 2 kts | 141° |
| 2026-04-21 08:55 | 19.09501 | 72.87049 | 27 ft | 2 kts | 144° |
| 2026-04-21 08:55 | 19.09515 | 72.87039 | 29 ft | 2 kts | 150° |
| 2026-04-21 08:55 | 19.09530 | 72.87032 | 26 ft | 2 kts | 172° |
| 2026-04-21 08:56 | 19.09545 | 72.87035 | 27 ft | 2 kts | 222° |
| 2026-04-21 08:56 | 19.09549 | 72.87039 | 27 ft | 0 kts | 227° |
| 2026-04-21 08:57 | 19.09549 | 72.87038 | 27 ft | 1 kts | 227° |
| 2026-04-21 08:58 | 19.09535 | 72.87022 | 28 ft | 5 kts | 227° |
| 2026-04-21 08:58 | 19.09494 | 72.86976 | 25 ft | 12 kts | 228° |
| 2026-04-21 08:58 | 19.09428 | 72.86896 | 28 ft | 17 kts | 229° |
| 2026-04-21 08:58 | 19.09400 | 72.86851 | 25 ft | 2 kts | 270° |
| 2026-04-21 08:59 | 19.09418 | 72.86824 | 27 ft | 7 kts | 310° |
| 2026-04-21 08:59 | 19.09412 | 72.86763 | 28 ft | 11 kts | 237° |
| 2026-04-21 08:59 | 19.09359 | 72.86698 | 25 ft | 14 kts | 231° |
| 2026-04-21 08:59 | 19.09274 | 72.86627 | 27 ft | 17 kts | 182° |
| 2026-04-21 09:00 | 19.09175 | 72.86712 | 26 ft | 21 kts | 132° |
| 2026-04-21 09:00 | 19.09062 | 72.86842 | 25 ft | 27 kts | 138° |
| 2026-04-21 09:00 | 19.08915 | 72.86990 | 27 ft | 32 kts | 135° |
| 2026-04-21 09:00 | 19.08751 | 72.87164 | 25 ft | 35 kts | 135° |
| 2026-04-21 09:01 | 19.08641 | 72.87362 | 26 ft | 25 kts | 73° |
| 2026-04-21 09:01 | 19.08724 | 72.87442 | 27 ft | 14 kts | 34° |
| 2026-04-21 09:01 | 19.08799 | 72.87495 | 25 ft | 12 kts | 33° |
| 2026-04-21 09:01 | 19.08873 | 72.87507 | 24 ft | 12 kts | 344° |
| 2026-04-21 09:02 | 19.08901 | 72.87498 | 25 ft | 0 kts | 335° |
| 2026-04-21 09:02 | 19.08900 | 72.87490 | 26 ft | 1 kts | 263° |
| 2026-04-21 09:02 | 19.08893 | 72.87471 | 25 ft | 4 kts | 248° |
| 2026-04-21 09:03 | 19.08880 | 72.87381 | 26 ft | 0 kts | 268° |
| 2026-04-21 09:03 | 19.08877 | 72.87270 | 26 ft | 47 kts | 270° |
| 2026-04-21 09:03 | 19.08871 | 72.86686 | 29 ft | 109 kts | 268° |
| 2026-04-21 09:03 | 19.08860 | 72.85636 | 99 ft | 169 kts | 270° |
| 2026-04-21 09:04 | 19.08831 | 72.84331 | 774 ft | 189 kts | 268° |
| 2026-04-21 09:04 | 19.08722 | 72.82870 | 1371 ft | 213 kts | 265° |
| 2026-04-21 09:04 | 19.08522 | 72.81160 | 1638 ft | 260 kts | 264° |
| 2026-04-21 09:04 | 19.08319 | 72.79107 | 1834 ft | 295 kts | 267° |
| 2026-04-21 09:05 | 19.08348 | 72.76923 | 2719 ft | 294 kts | 274° |
| 2026-04-21 09:05 | 19.08473 | 72.74934 | 3894 ft | 281 kts | 274° |
| 2026-04-21 09:05 | 19.08670 | 72.72898 | 4933 ft | 279 kts | 278° |
| 2026-04-21 09:05 | 19.08988 | 72.70858 | 5730 ft | 285 kts | 279° |
| 2026-04-21 09:06 | 19.09312 | 72.68762 | 6396 ft | 292 kts | 278° |
| 2026-04-21 09:06 | 19.09602 | 72.66632 | 6667 ft | 293 kts | 277° |
| 2026-04-21 09:06 | 19.09858 | 72.64495 | 6774 ft | 293 kts | 276° |
| 2026-04-21 09:06 | 19.10095 | 72.62355 | 6802 ft | 293 kts | 276° |
| 2026-04-21 09:07 | 19.10326 | 72.60214 | 6820 ft | 293 kts | 276° |
| 2026-04-21 09:07 | 19.10554 | 72.58073 | 7100 ft | 295 kts | 276° |
| 2026-04-21 09:07 | 19.10785 | 72.55905 | 7922 ft | 294 kts | 275° |
| 2026-04-21 09:07 | 19.11015 | 72.53763 | 8866 ft | 295 kts | 275° |
| 2026-04-21 09:08 | 19.11211 | 72.51929 | 9621 ft | 296 kts | 275° |
| 2026-04-21 09:08 | 19.11417 | 72.50006 | 10290 ft | 296 kts | 275° |
| 2026-04-21 09:08 | 19.11651 | 72.47805 | 10683 ft | 316 kts | 275° |
| 2026-04-21 09:08 | 19.11902 | 72.45418 | 10936 ft | 338 kts | 275° |
| 2026-04-21 09:09 | 19.12171 | 72.42885 | 11423 ft | 350 kts | 275° |
| 2026-04-21 09:09 | 19.12446 | 72.40317 | 12212 ft | 352 kts | 275° |
| 2026-04-21 09:09 | 19.12723 | 72.37725 | 12989 ft | 356 kts | 275° |
| 2026-04-21 09:09 | 19.13001 | 72.35121 | 13738 ft | 359 kts | 275° |
| 2026-04-21 09:10 | 19.13280 | 72.32493 | 14423 ft | 361 kts | 275° |
| 2026-04-21 09:10 | 19.13868 | 72.26933 | 15863 ft | 367 kts | 275° |
| 2026-04-21 09:10 | 19.15013 | 72.16000 | 18425 ft | 380 kts | 276° |
| 2026-04-21 09:10 | 19.17907 | 72.05296 | 20525 ft | 394 kts | 299° |
| 2026-04-21 09:11 | 19.23253 | 71.94696 | 22622 ft | 410 kts | 298° |
| 2026-04-21 09:11 | 19.28630 | 71.84000 | 24488 ft | 422 kts | 298° |
| 2026-04-21 09:11 | 19.33655 | 71.73987 | 26062 ft | 432 kts | 298° |
| 2026-04-21 09:11 | 19.36502 | 71.68314 | 26893 ft | 438 kts | 298° |
| 2026-04-21 09:12 | 19.39369 | 71.62590 | 27714 ft | 443 kts | 298° |
| 2026-04-21 09:12 | 19.43763 | 71.53800 | 28860 ft | 451 kts | 298° |
| 2026-04-21 09:12 | 19.47423 | 71.46473 | 29741 ft | 457 kts | 299° |
| 2026-04-21 09:12 | 19.51632 | 71.38022 | 30616 ft | 464 kts | 298° |
| 2026-04-21 09:13 | 19.56580 | 71.28097 | 31904 ft | 462 kts | 299° |
| 2026-04-21 09:13 | 19.60070 | 71.21061 | 32900 ft | 459 kts | 296° |
| 2026-04-21 09:13 | 19.64250 | 71.08485 | 33844 ft | 453 kts | 288° |
| 2026-04-21 09:13 | 19.68229 | 70.95766 | 33850 ft | 456 kts | 288° |
| 2026-04-21 09:14 | 19.73539 | 70.78688 | 33849 ft | 459 kts | 289° |
| 2026-04-21 09:14 | 19.79155 | 70.60571 | 33836 ft | 463 kts | 289° |
| 2026-04-21 09:15 | 19.84442 | 70.43436 | 33860 ft | 465 kts | 290° |
| 2026-04-21 09:15 | 19.86029 | 70.33739 | 33864 ft | 471 kts | 266° |
| 2026-04-21 09:15 | 19.84208 | 70.26383 | 33838 ft | 474 kts | 252° |
| 2026-04-21 09:16 | 19.77049 | 70.03729 | 33855 ft | 479 kts | 252° |
| 2026-04-21 09:16 | 19.68943 | 69.78241 | 33877 ft | 479 kts | 251° |
| 2026-04-21 09:17 | 19.62520 | 69.58145 | 33836 ft | 477 kts | 252° |
| 2026-04-21 09:17 | 19.56534 | 69.38683 | 33870 ft | 479 kts | 263° |
| 2026-04-21 09:18 | 19.57341 | 69.29940 | 33867 ft | 473 kts | 293° |
| 2026-04-21 09:18 | 19.61263 | 69.21922 | 33871 ft | 471 kts | 301° |
| 2026-04-21 09:18 | 19.70592 | 69.02721 | 33884 ft | 474 kts | 300° |
| 2026-04-21 09:19 | 19.78073 | 68.87087 | 33885 ft | 474 kts | 300° |
| 2026-04-21 09:19 | 19.84445 | 68.73736 | 33882 ft | 474 kts | 300° |
| 2026-04-21 09:20 | 19.90346 | 68.61344 | 33882 ft | 473 kts | 300° |
| 2026-04-21 09:20 | 19.96288 | 68.48840 | 33868 ft | 473 kts | 300° |
| 2026-04-21 09:21 | 20.02204 | 68.36361 | 33866 ft | 473 kts | 299° |
| 2026-04-21 09:21 | 20.08136 | 68.23823 | 33871 ft | 473 kts | 299° |
| 2026-04-21 09:22 | 20.14048 | 68.11297 | 33870 ft | 473 kts | 299° |
| 2026-04-21 09:22 | 20.19911 | 67.98850 | 33879 ft | 473 kts | 299° |
| 2026-04-21 09:23 | 20.25799 | 67.86318 | 33881 ft | 472 kts | 299° |
| 2026-04-21 09:23 | 20.31668 | 67.73797 | 33882 ft | 471 kts | 298° |
| 2026-04-21 09:24 | 20.37516 | 67.61295 | 33888 ft | 469 kts | 298° |
| 2026-04-21 09:24 | 20.43316 | 67.48866 | 33887 ft | 466 kts | 298° |
| 2026-04-21 09:25 | 20.49072 | 67.36503 | 33883 ft | 463 kts | 298° |
| 2026-04-21 09:25 | 20.54750 | 67.24281 | 33875 ft | 460 kts | 298° |
| 2026-04-21 09:26 | 20.60403 | 67.12084 | 33856 ft | 457 kts | 298° |
| 2026-04-21 09:26 | 20.66028 | 66.99921 | 33841 ft | 455 kts | 298° |
| 2026-04-21 09:27 | 20.71627 | 66.87787 | 33870 ft | 458 kts | 298° |
| 2026-04-21 09:27 | 20.77268 | 66.75534 | 33870 ft | 459 kts | 298° |
| 2026-04-21 09:28 | 20.82899 | 66.63274 | 33869 ft | 458 kts | 297° |
| 2026-04-21 09:28 | 20.88480 | 66.51097 | 33868 ft | 458 kts | 297° |
| 2026-04-21 09:29 | 20.94079 | 66.38852 | 33865 ft | 458 kts | 297° |
| 2026-04-21 09:29 | 20.99678 | 66.26578 | 33862 ft | 457 kts | 297° |
| 2026-04-21 09:30 | 21.04311 | 66.16399 | 33863 ft | 458 kts | 297° |
| 2026-04-21 09:30 | 21.09893 | 66.04116 | 33860 ft | 458 kts | 297° |
| 2026-04-21 09:31 | 21.15562 | 65.91888 | 33866 ft | 458 kts | 298° |
| 2026-04-21 09:31 | 21.21299 | 65.79751 | 33867 ft | 459 kts | 297° |
| 2026-04-21 09:32 | 21.27040 | 65.67532 | 33865 ft | 460 kts | 297° |
| 2026-04-21 09:32 | 21.33791 | 65.53127 | 33872 ft | 460 kts | 297° |
| 2026-04-21 09:33 | 21.39521 | 65.40867 | 33867 ft | 460 kts | 297° |
| 2026-04-21 09:33 | 21.45276 | 65.28527 | 33889 ft | 460 kts | 296° |
| 2026-04-21 09:34 | 21.51001 | 65.16221 | 33862 ft | 460 kts | 296° |
| 2026-04-21 09:34 | 21.56707 | 65.03926 | 33881 ft | 459 kts | 296° |
| 2026-04-21 09:35 | 21.62372 | 64.91702 | 33864 ft | 458 kts | 296° |
| 2026-04-21 09:35 | 21.68027 | 64.79461 | 33858 ft | 458 kts | 295° |
| 2026-04-21 09:36 | 21.73705 | 64.67132 | 33854 ft | 458 kts | 295° |
| 2026-04-21 09:36 | 21.79694 | 64.54103 | 33859 ft | 459 kts | 295° |
| 2026-04-21 09:37 | 21.89508 | 64.32685 | 33843 ft | 461 kts | 295° |
| 2026-04-21 09:37 | 21.95659 | 64.19205 | 33851 ft | 461 kts | 295° |
| 2026-04-21 09:38 | 22.01212 | 64.07013 | 33880 ft | 461 kts | 295° |
| 2026-04-21 09:38 | 22.10704 | 63.86106 | 33882 ft | 460 kts | 294° |
| 2026-04-21 09:39 | 22.16298 | 63.73741 | 33877 ft | 458 kts | 294° |
| 2026-04-21 09:39 | 22.22722 | 63.59506 | 33885 ft | 456 kts | 294° |
| 2026-04-21 09:40 | 22.28254 | 63.47213 | 33851 ft | 454 kts | 294° |
| 2026-04-21 09:40 | 22.33755 | 63.34962 | 33850 ft | 452 kts | 294° |
| 2026-04-21 09:41 | 22.39191 | 63.22820 | 33848 ft | 450 kts | 294° |
| 2026-04-21 09:41 | 22.44589 | 63.10619 | 33850 ft | 449 kts | 291° |
| 2026-04-21 09:42 | 22.48886 | 62.99579 | 33853 ft | 448 kts | 291° |
| 2026-04-21 09:42 | 22.53070 | 62.88884 | 33854 ft | 447 kts | 291° |
| 2026-04-21 09:43 | 22.57861 | 62.76575 | 33855 ft | 446 kts | 291° |
| 2026-04-21 09:43 | 22.62622 | 62.64311 | 33857 ft | 445 kts | 291° |
| 2026-04-21 09:44 | 22.67277 | 62.52287 | 33855 ft | 443 kts | 291° |
| 2026-04-21 09:44 | 22.72033 | 62.39974 | 33848 ft | 442 kts | 291° |
| 2026-04-21 09:45 | 22.76744 | 62.27744 | 33847 ft | 441 kts | 291° |
| 2026-04-21 09:45 | 22.81466 | 62.15451 | 33844 ft | 440 kts | 291° |
| 2026-04-21 09:46 | 22.86134 | 62.03263 | 33841 ft | 439 kts | 291° |
| 2026-04-21 09:46 | 22.90816 | 61.91009 | 33841 ft | 439 kts | 291° |
| 2026-04-21 09:47 | 22.95480 | 61.78766 | 33842 ft | 438 kts | 291° |
| 2026-04-21 09:47 | 23.00122 | 61.66551 | 33841 ft | 437 kts | 291° |
| 2026-04-21 09:48 | 23.04714 | 61.54432 | 33839 ft | 435 kts | 291° |
| 2026-04-21 09:48 | 23.09306 | 61.42283 | 33841 ft | 434 kts | 291° |
| 2026-04-21 09:49 | 23.13868 | 61.30180 | 33832 ft | 432 kts | 291° |
| 2026-04-21 09:49 | 23.18404 | 61.18112 | 33820 ft | 431 kts | 291° |
| 2026-04-21 09:50 | 23.21261 | 61.10494 | 33812 ft | 431 kts | 291° |
| 2026-04-21 09:50 | 23.27267 | 60.94436 | 33807 ft | 431 kts | 290° |
| 2026-04-21 09:51 | 23.31775 | 60.82346 | 33811 ft | 432 kts | 290° |
| 2026-04-21 09:51 | 23.36294 | 60.70198 | 33812 ft | 433 kts | 290° |
| 2026-04-21 09:52 | 23.40790 | 60.58017 | 33812 ft | 434 kts | 290° |
| 2026-04-21 09:52 | 23.45260 | 60.45777 | 33814 ft | 436 kts | 290° |
| 2026-04-21 09:53 | 23.49713 | 60.33570 | 33815 ft | 436 kts | 290° |
| 2026-04-21 09:53 | 23.54193 | 60.21255 | 33816 ft | 437 kts | 290° |
| 2026-04-21 09:54 | 23.58651 | 60.08958 | 33816 ft | 436 kts | 290° |
| 2026-04-21 09:54 | 23.63100 | 59.96656 | 33813 ft | 435 kts | 291° |
| 2026-04-21 09:55 | 23.67512 | 59.84418 | 33805 ft | 434 kts | 291° |
| 2026-04-21 09:55 | 23.71899 | 59.72211 | 33801 ft | 433 kts | 291° |
| 2026-04-21 09:56 | 23.76133 | 59.60404 | 33797 ft | 432 kts | 291° |
| 2026-04-21 09:56 | 23.80506 | 59.48176 | 33792 ft | 432 kts | 291° |
| 2026-04-21 09:57 | 23.84879 | 59.35912 | 33793 ft | 433 kts | 291° |
| 2026-04-21 09:57 | 23.89244 | 59.23635 | 33800 ft | 434 kts | 291° |
| 2026-04-21 09:58 | 23.93591 | 59.11318 | 33800 ft | 435 kts | 290° |
| 2026-04-21 09:58 | 23.97531 | 58.98894 | 33803 ft | 436 kts | 289° |
| 2026-04-21 09:59 | 24.01541 | 58.86362 | 33805 ft | 437 kts | 289° |
| 2026-04-21 09:59 | 24.05553 | 58.73795 | 33805 ft | 438 kts | 289° |
| 2026-04-21 10:00 | 24.09558 | 58.61211 | 33807 ft | 438 kts | 289° |
| 2026-04-21 10:00 | 24.13548 | 58.48629 | 33190 ft | 434 kts | 289° |
| 2026-04-21 10:01 | 24.14647 | 58.45158 | 32385 ft | 434 kts | 289° |
| 2026-04-21 10:01 | 24.15645 | 58.42007 | 31561 ft | 435 kts | 288° |
| 2026-04-21 10:01 | 24.16637 | 58.38868 | 30728 ft | 437 kts | 288° |
| 2026-04-21 10:01 | 24.17634 | 58.35717 | 29945 ft | 437 kts | 288° |
| 2026-04-21 10:02 | 24.19578 | 58.29555 | 28584 ft | 429 kts | 288° |
| 2026-04-21 10:02 | 24.20549 | 58.26471 | 27910 ft | 425 kts | 288° |
| 2026-04-21 10:02 | 24.21492 | 58.23475 | 27267 ft | 420 kts | 288° |
| 2026-04-21 10:03 | 24.22435 | 58.20474 | 26857 ft | 413 kts | 288° |
| 2026-04-21 10:03 | 24.23370 | 58.17501 | 26609 ft | 414 kts | 288° |
| 2026-04-21 10:03 | 24.24312 | 58.14498 | 26367 ft | 417 kts | 288° |
| 2026-04-21 10:03 | 24.25251 | 58.11505 | 26131 ft | 414 kts | 288° |
| 2026-04-21 10:04 | 24.26187 | 58.08521 | 25889 ft | 412 kts | 288° |
| 2026-04-21 10:04 | 24.27158 | 58.05567 | 25654 ft | 411 kts | 291° |
| 2026-04-21 10:04 | 24.28213 | 58.02661 | 25420 ft | 410 kts | 290° |
| 2026-04-21 10:04 | 24.29241 | 57.99778 | 25303 ft | 400 kts | 290° |
| 2026-04-21 10:05 | 24.30238 | 57.96982 | 25188 ft | 387 kts | 290° |
| 2026-04-21 10:05 | 24.31199 | 57.94301 | 24897 ft | 378 kts | 290° |
| 2026-04-21 10:05 | 24.32158 | 57.91633 | 24670 ft | 376 kts | 290° |
| 2026-04-21 10:05 | 24.33126 | 57.88945 | 24444 ft | 380 kts | 290° |
| 2026-04-21 10:06 | 24.34097 | 57.86248 | 24215 ft | 378 kts | 290° |
| 2026-04-21 10:06 | 24.35063 | 57.83566 | 23991 ft | 376 kts | 290° |
| 2026-04-21 10:06 | 24.36020 | 57.80908 | 23771 ft | 375 kts | 290° |
| 2026-04-21 10:06 | 24.36990 | 57.78210 | 23564 ft | 396 kts | 290° |
| 2026-04-21 10:07 | 24.38007 | 57.75378 | 23333 ft | 399 kts | 290° |
| 2026-04-21 10:07 | 24.39020 | 57.72560 | 23070 ft | 396 kts | 290° |
| 2026-04-21 10:07 | 24.40027 | 57.69758 | 22811 ft | 394 kts | 290° |
| 2026-04-21 10:07 | 24.41033 | 57.66956 | 22547 ft | 394 kts | 290° |
| 2026-04-21 10:08 | 24.42036 | 57.64159 | 22291 ft | 394 kts | 290° |
| 2026-04-21 10:08 | 24.43038 | 57.61364 | 22044 ft | 392 kts | 290° |
| 2026-04-21 10:08 | 24.44037 | 57.58572 | 21791 ft | 392 kts | 290° |
| 2026-04-21 10:08 | 24.45031 | 57.55794 | 21540 ft | 391 kts | 290° |
| 2026-04-21 10:09 | 24.46024 | 57.53018 | 21292 ft | 390 kts | 290° |
| 2026-04-21 10:09 | 24.48936 | 57.44861 | 20578 ft | 388 kts | 290° |
| 2026-04-21 10:09 | 24.52861 | 57.33846 | 19637 ft | 385 kts | 290° |
| 2026-04-21 10:09 | 24.56739 | 57.22929 | 18733 ft | 382 kts | 289° |
| 2026-04-21 10:10 | 24.60602 | 57.12018 | 17786 ft | 380 kts | 289° |
| 2026-04-21 10:10 | 24.64368 | 57.01361 | 16786 ft | 374 kts | 290° |
| 2026-04-21 10:10 | 24.67803 | 56.91585 | 15950 ft | 369 kts | 289° |
| 2026-04-21 10:10 | 24.69641 | 56.86346 | 15816 ft | 368 kts | 290° |
| 2026-04-21 10:11 | 24.71495 | 56.81084 | 15739 ft | 366 kts | 290° |
| 2026-04-21 10:11 | 24.72566 | 56.78042 | 15335 ft | 364 kts | 290° |
| 2026-04-21 10:11 | 24.73475 | 56.75456 | 14837 ft | 362 kts | 290° |
| 2026-04-21 10:11 | 24.74378 | 56.72883 | 14315 ft | 359 kts | 290° |
| 2026-04-21 10:12 | 24.75271 | 56.70334 | 13792 ft | 356 kts | 290° |
| 2026-04-21 10:12 | 24.76158 | 56.67802 | 13232 ft | 353 kts | 290° |
| 2026-04-21 10:12 | 24.77039 | 56.65286 | 12679 ft | 350 kts | 290° |
| 2026-04-21 10:12 | 24.77909 | 56.62798 | 12131 ft | 347 kts | 290° |
| 2026-04-21 10:13 | 24.78761 | 56.60361 | 11606 ft | 344 kts | 291° |
| 2026-04-21 10:13 | 24.79617 | 56.57911 | 11083 ft | 341 kts | 291° |
| 2026-04-21 10:13 | 24.80452 | 56.55520 | 10918 ft | 327 kts | 291° |
| 2026-04-21 10:13 | 24.81252 | 56.53231 | 10786 ft | 313 kts | 291° |
| 2026-04-21 10:14 | 24.82015 | 56.51047 | 10672 ft | 299 kts | 291° |
| 2026-04-21 10:14 | 24.82744 | 56.48956 | 10570 ft | 286 kts | 291° |
| 2026-04-21 10:14 | 24.83443 | 56.46954 | 10462 ft | 273 kts | 290° |
| 2026-04-21 10:14 | 24.84113 | 56.45033 | 10261 ft | 266 kts | 291° |
| 2026-04-21 10:15 | 24.84773 | 56.43136 | 9951 ft | 262 kts | 291° |
| 2026-04-21 10:15 | 24.85408 | 56.41313 | 9824 ft | 249 kts | 290° |
| 2026-04-21 10:15 | 24.86015 | 56.39565 | 9661 ft | 239 kts | 290° |
| 2026-04-21 10:15 | 24.86594 | 56.37900 | 9510 ft | 228 kts | 290° |
| 2026-04-21 10:16 | 24.87157 | 56.36281 | 9222 ft | 224 kts | 290° |
| 2026-04-21 10:16 | 24.87695 | 56.34738 | 9087 ft | 214 kts | 290° |
| 2026-04-21 10:16 | 24.88218 | 56.33235 | 8921 ft | 205 kts | 290° |
| 2026-04-21 10:16 | 24.88720 | 56.31784 | 8487 ft | 204 kts | 290° |
| 2026-04-21 10:17 | 24.89228 | 56.30319 | 7987 ft | 206 kts | 290° |
| 2026-04-21 10:17 | 24.89739 | 56.28843 | 7538 ft | 206 kts | 290° |
| 2026-04-21 10:17 | 24.90176 | 56.27347 | 7113 ft | 205 kts | 286° |
| 2026-04-21 10:17 | 24.90548 | 56.25830 | 6701 ft | 204 kts | 285° |
| 2026-04-21 10:18 | 24.91035 | 56.23797 | 6124 ft | 204 kts | 285° |
| 2026-04-21 10:18 | 24.92121 | 56.19458 | 4954 ft | 203 kts | 287° |
| 2026-04-21 10:18 | 24.92892 | 56.16474 | 4159 ft | 202 kts | 287° |
| 2026-04-21 10:18 | 24.93655 | 56.13526 | 3669 ft | 202 kts | 287° |
| 2026-04-21 10:19 | 24.94420 | 56.10557 | 3440 ft | 200 kts | 287° |
| 2026-04-21 10:19 | 24.95167 | 56.07628 | 3335 ft | 197 kts | 286° |
| 2026-04-21 10:19 | 24.95664 | 56.05685 | 3341 ft | 200 kts | 286° |
| 2026-04-21 10:19 | 24.96408 | 56.02744 | 3322 ft | 196 kts | 287° |
| 2026-04-21 10:20 | 24.97158 | 55.99837 | 3319 ft | 197 kts | 287° |
| 2026-04-21 10:20 | 24.97882 | 55.96986 | 2773 ft | 191 kts | 287° |
| 2026-04-21 10:20 | 24.98604 | 55.94191 | 2154 ft | 184 kts | 287° |
| 2026-04-21 10:20 | 24.99295 | 55.91474 | 2023 ft | 189 kts | 288° |
| 2026-04-21 10:21 | 25.00009 | 55.88672 | 2036 ft | 188 kts | 288° |
| 2026-04-21 10:21 | 25.00742 | 55.85810 | 2035 ft | 194 kts | 287° |
| 2026-04-21 10:21 | 25.01475 | 55.82906 | 2032 ft | 194 kts | 288° |
| 2026-04-21 10:21 | 25.02003 | 55.80841 | 2036 ft | 191 kts | 288° |
| 2026-04-21 10:22 | 25.02361 | 55.79437 | 2034 ft | 191 kts | 288° |
| 2026-04-21 10:22 | 25.02728 | 55.78008 | 2023 ft | 194 kts | 288° |
| 2026-04-21 10:22 | 25.03145 | 55.76639 | 2034 ft | 194 kts | 295° |
| 2026-04-21 10:22 | 25.03753 | 55.75303 | 2021 ft | 191 kts | 301° |
| 2026-04-21 10:23 | 25.04426 | 55.74051 | 2031 ft | 191 kts | 303° |
| 2026-04-21 10:23 | 25.05125 | 55.72799 | 2029 ft | 192 kts | 303° |
| 2026-04-21 10:23 | 25.05819 | 55.71557 | 2033 ft | 189 kts | 303° |
| 2026-04-21 10:23 | 25.06510 | 55.70321 | 2031 ft | 188 kts | 303° |
| 2026-04-21 10:24 | 25.07185 | 55.69099 | 2034 ft | 187 kts | 302° |
| 2026-04-21 10:24 | 25.07876 | 55.67853 | 2036 ft | 193 kts | 303° |
| 2026-04-21 10:24 | 25.08580 | 55.66584 | 2017 ft | 191 kts | 302° |
| 2026-04-21 10:24 | 25.09265 | 55.65347 | 2034 ft | 190 kts | 304° |
| 2026-04-21 10:25 | 25.09963 | 55.64099 | 2016 ft | 187 kts | 303° |
| 2026-04-21 10:25 | 25.10651 | 55.62854 | 2039 ft | 194 kts | 304° |
| 2026-04-21 10:25 | 25.11335 | 55.61622 | 2034 ft | 188 kts | 303° |
| 2026-04-21 10:25 | 25.12014 | 55.60392 | 2033 ft | 189 kts | 303° |
| 2026-04-21 10:26 | 25.12705 | 55.59151 | 2034 ft | 192 kts | 303° |
| 2026-04-21 10:26 | 25.13386 | 55.57923 | 2036 ft | 191 kts | 304° |
| 2026-04-21 10:26 | 25.14032 | 55.56754 | 2028 ft | 188 kts | 304° |
| 2026-04-21 10:26 | 25.14728 | 55.55501 | 2027 ft | 195 kts | 303° |
| 2026-04-21 10:27 | 25.15427 | 55.54235 | 2032 ft | 193 kts | 304° |
| 2026-04-21 10:27 | 25.16123 | 55.52986 | 2043 ft | 193 kts | 305° |
| 2026-04-21 10:27 | 25.16830 | 55.51708 | 2024 ft | 191 kts | 303° |
| 2026-04-21 10:27 | 25.17512 | 55.50471 | 2028 ft | 193 kts | 305° |
| 2026-04-21 10:28 | 25.18225 | 55.49193 | 2001 ft | 196 kts | 304° |
| 2026-04-21 10:28 | 25.18922 | 55.47925 | 1719 ft | 190 kts | 304° |
| 2026-04-21 10:28 | 25.19598 | 55.46711 | 1479 ft | 190 kts | 304° |
| 2026-04-21 10:28 | 25.20284 | 55.45471 | 1250 ft | 188 kts | 303° |
| 2026-04-21 10:29 | 25.20936 | 55.44288 | 1010 ft | 167 kts | 303° |
| 2026-04-21 10:29 | 25.21507 | 55.43262 | 802 ft | 149 kts | 303° |
| 2026-04-21 10:29 | 25.22042 | 55.42294 | 643 ft | 152 kts | 302° |
| 2026-04-21 10:29 | 25.22594 | 55.41287 | 451 ft | 151 kts | 302° |
| 2026-04-21 10:30 | 25.23126 | 55.40311 | 259 ft | 149 kts | 302° |
| 2026-04-21 10:30 | 25.23689 | 55.39324 | 85 ft | 154 kts | 303° |
| 2026-04-21 10:30 | 25.24249 | 55.38364 | 24 ft | 135 kts | 304° |
| 2026-04-21 10:30 | 25.24579 | 55.37729 | 22 ft | 34 kts | 296° |
| 2026-04-21 10:31 | 25.24686 | 55.37514 | 23 ft | 36 kts | 300° |
| 2026-04-21 10:31 | 25.24776 | 55.37265 | 22 ft | 36 kts | 281° |
| 2026-04-21 10:31 | 25.24787 | 55.37087 | 22 ft | 0 kts | 271° |
| 2026-04-21 10:31 | 25.24787 | 55.37058 | 23 ft | 0 kts | 272° |
| 2026-04-21 10:32 | 25.24789 | 55.37004 | 25 ft | 13 kts | 272° |
| 2026-04-21 10:32 | 25.24831 | 55.36891 | 22 ft | 21 kts | 299° |
| 2026-04-21 10:32 | 25.24852 | 55.36834 | 24 ft | 0 kts | 288° |